createdAt,value
2023-01-25T00:00:05.205Z,2.80
2023-01-25T00:02:53.429Z,2.70
2023-01-25T00:05:43.244Z,2.70
2023-01-25T00:08:31.676Z,2.70
2023-01-25T00:11:20.381Z,2.80
2023-01-25T00:14:08.870Z,2.80
2023-01-25T00:16:57.027Z,2.80
2023-01-25T00:19:45.223Z,2.80
2023-01-25T00:22:34.763Z,2.80
2023-01-25T00:25:23.043Z,2.80
2023-01-25T00:28:11.300Z,2.80
2023-01-25T00:31:01.299Z,2.80
2023-01-25T00:33:53.420Z,2.80
2023-01-25T00:36:43.172Z,2.70
2023-01-25T00:39:34.857Z,2.60
2023-01-25T00:42:23.308Z,2.60
2023-01-25T00:45:13.049Z,2.70
2023-01-25T00:48:01.293Z,2.60
2023-01-25T00:50:49.628Z,2.60
2023-01-25T00:53:37.916Z,2.50
2023-01-25T00:56:27.433Z,2.50
2023-01-25T00:59:16.156Z,2.50
2023-01-25T01:02:05.179Z,2.60
2023-01-25T01:04:53.549Z,2.60
2023-01-25T01:07:41.708Z,2.60
2023-01-25T01:10:29.977Z,2.60
2023-01-25T01:13:19.561Z,2.60
2023-01-25T01:16:11.887Z,2.60
2023-01-25T01:19:00.199Z,2.60
2023-01-25T01:21:48.327Z,2.60
2023-01-25T01:24:36.530Z,2.60
2023-01-25T01:27:24.649Z,2.80
2023-01-25T01:30:14.857Z,2.50
2023-01-25T01:33:02.811Z,2.60
2023-01-25T01:35:50.871Z,2.60
2023-01-25T01:38:38.845Z,2.60
2023-01-25T01:41:26.983Z,2.60
2023-01-25T01:44:22.526Z,2.60
2023-01-25T01:47:16.591Z,2.60
2023-01-25T01:50:17.955Z,2.70
2023-01-25T01:53:05.957Z,2.60
2023-01-25T01:55:56.071Z,2.50
2023-01-25T01:58:45.325Z,2.60
2023-01-25T02:01:34.049Z,2.60
2023-01-25T02:04:26.157Z,2.50
2023-01-25T02:07:18.483Z,2.50
2023-01-25T02:10:08.665Z,2.60
2023-01-25T02:12:57.838Z,2.50
2023-01-25T02:15:48.366Z,2.50
2023-01-25T02:18:36.420Z,2.50
2023-01-25T02:21:26.534Z,2.50
2023-01-25T02:24:21.171Z,2.40
2023-01-25T02:27:10.568Z,2.40
2023-01-25T02:29:59.255Z,2.30
2023-01-25T02:32:47.244Z,2.30
2023-01-25T02:35:42.220Z,2.30
2023-01-25T02:38:34.406Z,2.40
2023-01-25T02:41:33.298Z,2.40
2023-01-25T02:44:25.313Z,2.30
2023-01-25T02:47:13.283Z,2.40
2023-01-25T02:50:01.284Z,2.40
2023-01-25T02:52:49.242Z,2.40
2023-01-25T02:55:37.204Z,2.50
2023-01-25T02:58:25.146Z,2.40
2023-01-25T03:01:15.571Z,2.40
2023-01-25T03:04:03.596Z,2.30
2023-01-25T03:06:52.049Z,2.30
2023-01-25T03:09:40.015Z,2.30
2023-01-25T03:12:27.942Z,2.30
2023-01-25T03:15:16.045Z,2.30
2023-01-25T03:18:05.425Z,2.40
2023-01-25T03:20:53.468Z,2.40
2023-01-25T03:23:42.163Z,2.50
2023-01-25T03:26:30.997Z,2.40
2023-01-25T03:29:18.990Z,2.40
2023-01-25T03:32:07.213Z,2.30
2023-01-25T03:34:56.745Z,2.30
2023-01-25T03:37:44.682Z,2.30
2023-01-25T03:40:32.683Z,2.40
2023-01-25T03:43:22.458Z,2.40
2023-01-25T03:46:10.485Z,2.40
2023-01-25T03:48:58.407Z,2.30
2023-01-25T03:51:47.951Z,2.20
2023-01-25T03:54:36.002Z,2.30
2023-01-25T03:57:24.009Z,2.20
2023-01-25T04:00:13.238Z,2.20
2023-01-25T04:03:01.182Z,2.20
2023-01-25T04:05:49.504Z,2.30
2023-01-25T04:08:38.815Z,2.30
2023-01-25T04:11:26.907Z,2.20
2023-01-25T04:14:14.938Z,2.20
2023-01-25T04:17:05.410Z,2.20
2023-01-25T04:19:53.454Z,2.20
2023-01-25T04:22:41.446Z,2.10
2023-01-25T04:25:30.759Z,2.10
2023-01-25T04:28:18.692Z,2.10
2023-01-25T04:31:07.129Z,2.10
2023-01-25T04:33:56.019Z,2.20
2023-01-25T04:36:44.269Z,2.20
2023-01-25T04:39:32.375Z,2.10
2023-01-25T04:42:21.770Z,2.00
2023-01-25T04:45:11.117Z,2.10
2023-01-25T04:48:00.609Z,2.00
2023-01-25T04:50:48.739Z,2.00
2023-01-25T04:53:36.792Z,2.00
2023-01-25T04:56:25.941Z,2.00
2023-01-25T04:59:15.636Z,2.10
2023-01-25T05:02:03.766Z,2.10
2023-01-25T05:04:51.785Z,2.00
2023-01-25T05:07:39.975Z,2.00
2023-01-25T05:10:28.127Z,2.00
2023-01-25T05:13:16.176Z,1.90
2023-01-25T05:16:07.728Z,1.80
2023-01-25T05:18:57.414Z,1.80
2023-01-25T05:22:00.436Z,1.90
2023-01-25T05:24:49.475Z,1.80
2023-01-25T05:27:36.458Z,1.80
2023-01-25T05:30:24.440Z,1.70
2023-01-25T05:33:13.756Z,1.60
2023-01-25T05:36:01.776Z,1.50
2023-01-25T05:38:49.727Z,1.50
2023-01-25T05:41:37.705Z,1.50
2023-01-25T05:44:25.744Z,1.50
2023-01-25T05:47:16.183Z,1.50
2023-01-25T05:50:11.890Z,1.60
2023-01-25T05:53:04.126Z,1.70
2023-01-25T05:55:56.077Z,1.60
2023-01-25T05:58:44.075Z,1.50
2023-01-25T06:01:32.471Z,1.50
2023-01-25T06:04:20.543Z,1.50
2023-01-25T06:07:09.927Z,1.60
2023-01-25T06:09:57.913Z,1.70
2023-01-25T06:12:47.692Z,1.70
2023-01-25T06:15:35.702Z,1.60
2023-01-25T06:18:25.319Z,1.60
2023-01-25T06:21:13.374Z,1.60
2023-01-25T06:24:02.790Z,1.60
2023-01-25T06:26:50.958Z,1.60
2023-01-25T06:29:39.129Z,1.50
2023-01-25T06:32:32.338Z,1.50
2023-01-25T06:35:20.426Z,1.50
2023-01-25T06:38:08.573Z,1.60
2023-01-25T06:41:01.404Z,1.70
2023-01-25T06:43:52.536Z,1.70
2023-01-25T06:46:40.662Z,1.70
2023-01-25T06:49:28.739Z,1.80
2023-01-25T06:52:16.863Z,1.70
2023-01-25T06:55:05.946Z,1.80
2023-01-25T06:57:55.492Z,1.70
2023-01-25T07:00:44.750Z,1.60
2023-01-25T07:03:34.014Z,1.50
2023-01-25T07:06:22.961Z,1.50
2023-01-25T07:09:12.776Z,1.50
2023-01-25T07:12:02.186Z,1.50
2023-01-25T07:14:51.600Z,1.60
2023-01-25T07:17:39.667Z,1.70
2023-01-25T07:20:27.706Z,1.60
2023-01-25T07:23:15.863Z,1.50
2023-01-25T07:26:04.727Z,1.50
2023-01-25T07:28:53.755Z,1.30
2023-01-25T07:31:43.758Z,1.50
2023-01-25T07:34:31.877Z,1.50
2023-01-25T07:37:20.034Z,1.60
2023-01-25T07:40:09.273Z,1.60
2023-01-25T07:42:58.574Z,1.70
2023-01-25T07:45:48.741Z,1.60
2023-01-25T07:48:38.647Z,1.40
2023-01-25T07:51:27.983Z,1.50
2023-01-25T07:54:16.159Z,1.50
2023-01-25T07:57:04.479Z,1.60
2023-01-25T07:59:52.556Z,1.60
2023-01-25T08:02:40.701Z,1.60
2023-01-25T08:05:30.194Z,1.60
2023-01-25T08:08:18.295Z,1.50
2023-01-25T08:11:11.618Z,1.50
2023-01-25T08:14:01.915Z,1.50
2023-01-25T08:16:49.989Z,1.40
2023-01-25T08:19:38.143Z,1.40
2023-01-25T08:22:28.362Z,1.40
2023-01-25T08:25:16.594Z,1.40
2023-01-25T08:28:04.819Z,1.30
2023-01-25T08:30:57.474Z,1.40
2023-01-25T08:33:46.984Z,1.30
2023-01-25T08:36:35.264Z,1.40
2023-01-25T08:39:24.849Z,1.50
2023-01-25T08:42:12.887Z,1.60
2023-01-25T08:45:00.828Z,1.70
2023-01-25T08:47:48.836Z,1.70
2023-01-25T08:50:36.808Z,1.70
2023-01-25T08:53:25.051Z,1.60
2023-01-25T08:56:15.750Z,1.50
2023-01-25T08:59:03.763Z,1.50
2023-01-25T09:01:51.773Z,1.50
2023-01-25T09:04:39.952Z,1.50
2023-01-25T09:07:27.988Z,1.50
2023-01-25T09:10:15.945Z,1.50
2023-01-25T09:13:07.683Z,1.50
2023-01-25T09:16:00.764Z,1.50
2023-01-25T09:18:50.702Z,1.50
2023-01-25T09:21:39.901Z,1.60
2023-01-25T09:24:27.907Z,1.70
2023-01-25T09:27:15.961Z,1.90
2023-01-25T09:30:10.849Z,1.90
2023-01-25T09:33:03.819Z,1.80
2023-01-25T09:35:51.815Z,1.70
2023-01-25T09:38:39.863Z,1.70
2023-01-25T09:41:46.470Z,1.70
2023-01-25T09:45:04.327Z,1.80
2023-01-25T09:47:59.755Z,1.90
2023-01-25T09:51:11.848Z,1.90
2023-01-25T09:54:01.219Z,2.00
2023-01-25T09:56:51.627Z,2.10
2023-01-25T09:59:41.001Z,2.10
2023-01-25T10:02:41.495Z,2.10
2023-01-25T10:05:37.007Z,2.10
2023-01-25T10:08:30.018Z,2.00
2023-01-25T10:11:24.579Z,2.10
2023-01-25T10:14:16.213Z,2.10
2023-01-25T10:17:10.571Z,2.10
2023-01-25T10:20:10.460Z,2.20
2023-01-25T10:23:13.613Z,2.20
2023-01-25T10:26:02.785Z,2.20
2023-01-25T10:28:57.888Z,2.30
2023-01-25T10:31:49.112Z,2.30
2023-01-25T10:34:54.541Z,2.20
2023-01-25T10:37:44.159Z,2.30
2023-01-25T10:40:41.043Z,2.30
2023-01-25T10:43:29.721Z,2.30
2023-01-25T10:46:23.174Z,2.20
2023-01-25T10:49:23.247Z,2.20
2023-01-25T10:52:15.406Z,2.20
2023-01-25T10:55:14.738Z,2.30
2023-01-25T10:58:04.154Z,2.30
2023-01-25T11:00:52.797Z,2.40
2023-01-25T11:03:44.709Z,2.40
2023-01-25T11:06:35.823Z,2.40
2023-01-25T11:09:39.418Z,2.40
2023-01-25T11:12:27.470Z,2.50
2023-01-25T11:15:26.470Z,2.50
2023-01-25T11:18:19.033Z,2.60
2023-01-25T11:21:14.871Z,2.60
2023-01-25T11:24:06.089Z,2.70
2023-01-25T11:27:13.688Z,2.60
2023-01-25T11:30:10.912Z,2.50
2023-01-25T11:33:00.480Z,2.60
2023-01-25T11:36:16.700Z,2.60
2023-01-25T11:39:31.134Z,2.60
2023-01-25T11:42:29.941Z,2.60
2023-01-25T11:45:45.410Z,2.50
2023-01-25T11:49:00.495Z,2.50
2023-01-25T11:51:54.953Z,2.70
2023-01-25T11:54:52.268Z,2.80
2023-01-25T11:57:57.209Z,2.80
2023-01-25T12:01:06.970Z,2.80
2023-01-25T12:04:34.328Z,2.70
2023-01-25T12:07:35.901Z,2.80
2023-01-25T12:10:31.894Z,2.60
2023-01-25T12:13:31.516Z,2.50
2023-01-25T12:16:41.948Z,2.50
2023-01-25T12:19:48.634Z,2.60
2023-01-25T12:22:51.120Z,2.70
2023-01-25T12:25:47.106Z,2.70
2023-01-25T12:28:44.265Z,2.70
2023-01-25T12:31:42.530Z,2.70
2023-01-25T12:34:37.984Z,2.60
2023-01-25T12:37:33.750Z,2.70
2023-01-25T12:40:33.716Z,2.70
2023-01-25T12:43:27.526Z,2.70
2023-01-25T12:46:25.222Z,2.70
2023-01-25T12:49:21.389Z,2.80
2023-01-25T12:52:28.483Z,2.80
2023-01-25T12:55:18.212Z,2.90
2023-01-25T12:58:18.265Z,2.90
2023-01-25T13:01:13.412Z,2.90
2023-01-25T13:04:23.770Z,2.90
2023-01-25T13:07:18.871Z,2.90
2023-01-25T13:10:20.328Z,2.90
2023-01-25T13:13:23.269Z,2.90
2023-01-25T13:16:33.402Z,2.80
2023-01-25T13:19:23.818Z,2.80
2023-01-25T13:22:13.412Z,2.90
2023-01-25T13:25:11.105Z,2.90
2023-01-25T13:28:42.845Z,2.80
2023-01-25T13:31:53.737Z,2.80
2023-01-25T13:34:57.737Z,2.90
2023-01-25T13:37:45.775Z,2.90
2023-01-25T13:40:36.485Z,2.80
2023-01-25T13:43:24.561Z,2.80
2023-01-25T13:46:19.041Z,2.80
2023-01-25T13:49:14.458Z,2.80
2023-01-25T13:52:05.603Z,2.80
2023-01-25T13:54:58.021Z,2.60
2023-01-25T13:57:46.121Z,2.80
2023-01-25T14:00:34.299Z,2.70
2023-01-25T14:03:28.962Z,2.70
2023-01-25T14:06:19.274Z,2.70
2023-01-25T14:09:16.604Z,2.70
2023-01-25T14:12:10.966Z,2.70
2023-01-25T14:14:59.048Z,2.70
2023-01-25T14:17:47.529Z,2.80
2023-01-25T14:20:37.141Z,2.70
2023-01-25T14:23:26.988Z,2.60
2023-01-25T14:26:20.212Z,2.40
2023-01-25T14:29:31.886Z,2.50
2023-01-25T14:32:29.257Z,2.50
2023-01-25T14:35:55.636Z,2.50
2023-01-25T14:38:45.706Z,2.50
2023-01-25T14:41:36.393Z,2.50
2023-01-25T14:44:25.606Z,2.50
2023-01-25T14:47:32.616Z,2.40
2023-01-25T14:50:32.831Z,2.30
2023-01-25T14:53:28.127Z,2.40
2023-01-25T14:56:36.749Z,2.40
2023-01-25T14:59:33.818Z,2.40
2023-01-25T15:02:29.384Z,2.40
2023-01-25T15:05:22.298Z,2.50
2023-01-25T15:08:30.788Z,2.50
2023-01-25T15:11:45.764Z,2.50
2023-01-25T15:14:34.891Z,2.40
2023-01-25T15:17:44.965Z,2.30
2023-01-25T15:20:37.447Z,2.20
2023-01-25T15:23:27.639Z,2.30
2023-01-25T15:26:21.788Z,2.40
2023-01-25T15:29:15.220Z,2.30
2023-01-25T15:32:03.896Z,2.40
2023-01-25T15:34:53.625Z,2.30
2023-01-25T15:37:41.749Z,2.30
2023-01-25T15:40:29.713Z,2.20
2023-01-25T15:43:20.653Z,2.10
2023-01-25T15:46:16.057Z,2.00
2023-01-25T15:49:06.479Z,2.00
2023-01-25T15:51:54.889Z,1.90
2023-01-25T15:54:51.710Z,1.90
2023-01-25T15:57:40.302Z,1.90
2023-01-25T16:00:29.618Z,1.80
2023-01-25T16:03:18.110Z,1.70
2023-01-25T16:06:17.752Z,1.70
2023-01-25T16:09:15.126Z,1.70
2023-01-25T16:12:03.332Z,2.10
2023-01-25T16:14:51.480Z,1.90
2023-01-25T16:17:40.823Z,1.80
2023-01-25T16:20:28.932Z,1.80
2023-01-25T16:23:16.922Z,1.90
2023-01-25T16:26:05.572Z,1.80
2023-01-25T16:28:53.616Z,1.90
2023-01-25T16:31:41.794Z,1.80
2023-01-25T16:34:31.381Z,1.70
2023-01-25T16:37:19.499Z,1.70
2023-01-25T16:40:15.954Z,1.80
2023-01-25T16:43:04.502Z,1.70
2023-01-25T16:45:58.323Z,1.70
2023-01-25T16:48:47.398Z,1.90
2023-01-25T16:51:37.959Z,1.90
2023-01-25T16:54:27.573Z,1.80
2023-01-25T16:57:20.210Z,1.70
2023-01-25T17:00:11.615Z,1.70
2023-01-25T17:03:00.291Z,1.70
2023-01-25T17:05:48.374Z,1.70
2023-01-25T17:08:37.659Z,1.60
2023-01-25T17:11:26.128Z,1.60
2023-01-25T17:14:16.687Z,1.50
2023-01-25T17:17:05.394Z,1.40
2023-01-25T17:19:53.388Z,1.40
2023-01-25T17:22:42.490Z,1.40
2023-01-25T17:25:35.319Z,1.40
2023-01-25T17:28:23.671Z,1.30
2023-01-25T17:31:16.610Z,1.20
2023-01-25T17:34:06.670Z,1.20
2023-01-25T17:36:54.644Z,1.20
2023-01-25T17:39:42.876Z,1.10
2023-01-25T17:42:32.944Z,1.10
2023-01-25T17:45:20.959Z,1.10
2023-01-25T17:48:09.765Z,1.10
2023-01-25T17:51:06.704Z,1.30
2023-01-25T17:53:55.057Z,1.30
2023-01-25T17:56:44.842Z,1.30
2023-01-25T17:59:34.342Z,1.30
2023-01-25T18:02:22.646Z,1.20
2023-01-25T18:05:10.717Z,1.20
2023-01-25T18:07:58.687Z,1.10
2023-01-25T18:10:46.749Z,1.10
2023-01-25T18:13:34.741Z,0.90
2023-01-25T18:16:25.496Z,0.80
2023-01-25T18:19:13.657Z,0.90
2023-01-25T18:22:01.637Z,0.80
2023-01-25T18:24:51.944Z,0.90
2023-01-25T18:27:39.870Z,0.90
2023-01-25T18:30:35.073Z,0.90
2023-01-25T18:33:24.546Z,1.00
2023-01-25T18:36:15.664Z,1.10
2023-01-25T18:39:03.771Z,1.00
2023-01-25T18:41:51.811Z,1.00
2023-01-25T18:44:39.790Z,1.00
2023-01-25T18:47:27.804Z,1.00
2023-01-25T18:50:18.297Z,1.00
2023-01-25T18:53:06.436Z,1.10
2023-01-25T18:56:02.553Z,1.10
2023-01-25T18:58:51.064Z,1.30
2023-01-25T19:01:39.258Z,1.30
2023-01-25T19:04:28.057Z,1.20
2023-01-25T19:07:17.691Z,1.20
2023-01-25T19:10:06.810Z,1.00
2023-01-25T19:12:54.910Z,1.00
2023-01-25T19:15:42.942Z,0.90
2023-01-25T19:18:32.941Z,0.90
2023-01-25T19:21:22.497Z,0.90
2023-01-25T19:24:13.519Z,0.80
2023-01-25T19:27:01.600Z,0.70
2023-01-25T19:29:49.736Z,0.60
2023-01-25T19:32:37.998Z,0.60
2023-01-25T19:35:26.803Z,0.70
2023-01-25T19:38:15.836Z,0.70
2023-01-25T19:41:06.757Z,0.70
2023-01-25T19:43:55.502Z,0.70
2023-01-25T19:46:43.911Z,0.70
2023-01-25T19:49:34.921Z,0.70
2023-01-25T19:52:22.934Z,0.70
2023-01-25T19:55:11.241Z,0.70
2023-01-25T19:58:00.792Z,0.70
2023-01-25T20:00:48.942Z,0.80
2023-01-25T20:03:37.574Z,0.90
2023-01-25T20:06:26.699Z,0.90
2023-01-25T20:09:15.581Z,0.90
2023-01-25T20:12:07.869Z,1.00
2023-01-25T20:14:57.298Z,1.10
2023-01-25T20:17:47.604Z,0.90
2023-01-25T20:20:35.591Z,0.90
2023-01-25T20:23:23.973Z,1.00
2023-01-25T20:26:14.695Z,1.00
2023-01-25T20:29:02.704Z,1.00
2023-01-25T20:31:53.144Z,0.90
2023-01-25T20:34:41.906Z,0.90
2023-01-25T20:37:29.853Z,0.90
2023-01-25T20:40:18.180Z,0.90
2023-01-25T20:43:06.153Z,1.00
2023-01-25T20:45:54.582Z,1.00
2023-01-25T20:48:44.132Z,1.00
2023-01-25T20:51:32.273Z,1.00
2023-01-25T20:54:21.609Z,0.90
2023-01-25T20:57:10.009Z,0.80
2023-01-25T20:59:57.979Z,0.80
2023-01-25T21:02:46.256Z,0.90
2023-01-25T21:05:35.640Z,0.90
2023-01-25T21:08:25.008Z,1.00
2023-01-25T21:11:13.438Z,0.90
2023-01-25T21:14:01.532Z,0.90
2023-01-25T21:16:50.598Z,0.80
2023-01-25T21:19:38.735Z,0.60
2023-01-25T21:22:29.270Z,0.60
2023-01-25T21:25:17.391Z,0.60
2023-01-25T21:28:05.780Z,0.50
2023-01-25T21:30:53.993Z,0.50
2023-01-25T21:33:42.422Z,0.50
2023-01-25T21:36:30.694Z,0.60
2023-01-25T21:39:20.164Z,0.60
2023-01-25T21:42:08.236Z,0.60
2023-01-25T21:45:10.418Z,0.60
2023-01-25T21:48:00.305Z,0.60
2023-01-25T21:51:05.961Z,0.70
2023-01-25T21:53:53.997Z,0.80
2023-01-25T21:56:43.583Z,0.90
2023-01-25T21:59:32.105Z,0.80
2023-01-25T22:02:20.222Z,0.70
2023-01-25T22:05:08.950Z,0.60
2023-01-25T22:07:56.977Z,0.50
2023-01-25T22:10:44.974Z,0.50
2023-01-25T22:13:36.113Z,0.60
2023-01-25T22:16:24.203Z,0.60
2023-01-25T22:19:12.409Z,0.80
2023-01-25T22:22:00.798Z,0.80
2023-01-25T22:24:49.002Z,0.80
2023-01-25T22:27:47.626Z,0.60
2023-01-25T22:30:37.465Z,0.50
2023-01-25T22:33:25.494Z,0.50
2023-01-25T22:36:15.455Z,0.50
2023-01-25T22:39:03.425Z,0.60
2023-01-25T22:41:51.394Z,0.50
2023-01-25T22:44:39.331Z,0.60
2023-01-25T22:47:28.791Z,0.50
2023-01-25T22:50:17.361Z,0.50
2023-01-25T22:53:05.414Z,0.50
2023-01-25T22:55:59.328Z,0.40
2023-01-25T22:58:48.470Z,0.40
2023-01-25T23:01:36.781Z,0.40
2023-01-25T23:04:26.393Z,0.30
2023-01-25T23:07:18.871Z,0.60
2023-01-25T23:10:08.245Z,0.40
2023-01-25T23:12:56.489Z,0.40
2023-01-25T23:15:44.480Z,0.40
2023-01-25T23:18:50.129Z,0.30
2023-01-25T23:21:39.896Z,0.30
2023-01-25T23:24:28.056Z,0.30
2023-01-25T23:27:16.070Z,0.40
2023-01-25T23:30:04.891Z,0.30
2023-01-25T23:32:52.984Z,0.30
2023-01-25T23:35:40.934Z,0.20
2023-01-25T23:38:30.272Z,0.20
2023-01-25T23:41:20.293Z,0.30
2023-01-25T23:44:09.118Z,0.20
2023-01-25T23:46:57.135Z,0.20
2023-01-25T23:49:45.179Z,0.10
2023-01-25T23:52:33.211Z,0.10
2023-01-25T23:55:22.521Z,0.10
2023-01-25T23:58:10.593Z,0.00
